Time;durP1;ratioP1;P1;durP2;ratioP2;P2;SDS_P1;SDS_P2;PMS_P1;PMS_P2;Temp;Humidity;BMP_temperature;BMP_pressure;BME280_temperature;BME280_humidity;BME280_pressure;Samples;Min_cycle;Max_cycle;Signal;HPM_P1;HPM_P2
2023/07/22 00:01:32;;;;;;;29.98;19.70;;;;;;;13.94;100.00;101269.75;5032544;28;20429;-47
2023/07/22 00:03:58;;;;;;;26.98;19.00;;;;;;;13.90;100.00;101268.13;5032501;28;20611;-51
2023/07/22 00:06:23;;;;;;;27.13;18.05;;;;;;;13.38;100.00;101187.28;5032227;28;20030;-47
2023/07/22 00:08:50;;;;;;;29.75;18.77;;;;;;;13.79;100.00;101263.28;5032303;28;20029;-50
2023/07/22 00:11:15;;;;;;;27.38;18.25;;;;;;;13.55;100.00;101224.53;5014552;28;20034;-49
2023/07/22 00:13:40;;;;;;;26.38;18.13;;;;;;;13.87;100.00;101266.47;5032403;28;20430;-48
2023/07/22 00:16:07;;;;;;;27.27;18.15;;;;;;;13.75;100.00;101259.00;5032017;28;20044;-47
2023/07/22 00:18:33;;;;;;;28.58;18.42;;;;;;;13.73;100.00;101244.97;5032070;28;20025;-49
2023/07/22 00:20:59;;;;;;;29.00;19.55;;;;;;;13.84;100.00;101248.06;5030990;28;20025;-49
2023/07/22 00:23:24;;;;;;;28.65;19.23;;;;;;;13.79;100.00;101250.03;5032517;28;20087;-47
2023/07/22 00:25:50;;;;;;;28.15;18.70;;;;;;;13.53;100.00;101210.50;5032243;28;20051;-49
2023/07/22 00:28:15;;;;;;;27.27;17.73;;;;;;;13.61;100.00;101247.22;5031997;28;20133;-47
2023/07/22 00:30:43;;;;;;;28.42;18.35;;;;;;;13.46;100.00;101203.72;5032046;28;20162;-47
2023/07/22 00:33:08;;;;;;;28.70;18.58;;;;;;;13.31;100.00;101177.91;5030860;28;20076;-48
2023/07/22 00:35:34;;;;;;;26.00;17.65;;;;;;;13.72;100.00;101261.78;5032268;28;20100;-49
2023/07/22 00:38:03;;;;;;;27.13;18.45;;;;;;;13.65;100.00;101255.00;5032061;28;20397;-50
2023/07/22 00:40:32;;;;;;;27.77;17.38;;;;;;;13.68;100.00;101261.97;5031811;28;20489;-47
2023/07/22 00:42:57;;;;;;;24.20;18.23;;;;;;;13.27;100.00;101184.19;5032027;28;20037;-47
2023/07/22 00:45:22;;;;;;;24.42;16.92;;;;;;;13.54;100.00;101233.41;5030752;28;20519;-50
2023/07/22 00:47:48;;;;;;;25.63;16.55;;;;;;;13.26;100.00;101191.25;5030785;28;20041;-48
2023/07/22 00:50:13;;;;;;;24.63;16.42;;;;;;;13.61;100.00;101249.88;5030686;28;20096;-47
2023/07/22 00:52:39;;;;;;;25.70;15.85;;;;;;;13.21;100.00;101187.06;5032152;28;20064;-47
2023/07/22 00:55:05;;;;;;;24.25;16.45;;;;;;;13.15;100.00;101180.25;5031965;28;20099;-46
2023/07/22 00:57:30;;;;;;;23.55;15.82;;;;;;;13.45;100.00;101236.41;5030495;28;20083;-46
2023/07/22 00:59:56;;;;;;;21.77;14.98;;;;;;;13.37;100.00;101230.50;5032073;28;20452;-48
2023/07/22 01:02:22;;;;;;;20.27;14.07;;;;;;;13.43;100.00;101243.50;5030775;28;20496;-50
2023/07/22 01:04:48;;;;;;;21.20;14.30;;;;;;;13.32;100.00;101217.47;5031792;28;20030;-48
2023/07/22 01:07:14;;;;;;;20.77;14.80;;;;;;;13.34;100.00;101218.28;5031686;28;20377;-48
2023/07/22 01:09:40;;;;;;;20.08;13.55;;;;;;;13.44;100.00;101237.31;5031646;28;20079;-46
2023/07/22 01:12:08;;;;;;;19.25;13.68;;;;;;;13.36;100.00;101216.44;5031819;28;20033;-47
2023/07/22 01:14:34;;;;;;;24.40;13.90;;;;;;;13.45;100.00;101226.69;5013875;28;20037;-49
2023/07/22 01:17:10;;;;;;;19.83;13.50;;;;;;;12.98;100.00;101148.28;5030665;28;20036;-49
2023/07/22 01:19:35;;;;;;;17.58;12.82;;;;;;;13.05;100.00;101155.03;5013948;28;20411;-48
2023/07/22 01:22:03;;;;;;;17.65;12.73;;;;;;;13.02;100.00;101154.31;5031745;28;20116;-52
2023/07/22 01:24:29;;;;;;;17.98;12.48;;;;;;;13.38;100.00;101211.97;5031264;28;20057;-49
2023/07/22 01:26:55;;;;;;;15.18;12.02;;;;;;;13.19;100.00;101165.13;5034780;28;20098;-49
2023/07/22 01:29:22;;;;;;;17.30;11.95;;;;;;;13.48;100.00;101223.06;5017312;28;20049;-48
2023/07/22 01:31:50;;;;;;;16.75;12.00;;;;;;;13.03;100.00;101137.50;5033847;28;20528;-48
2023/07/22 01:34:15;;;;;;;17.92;12.23;;;;;;;13.46;100.00;101212.53;5035250;28;20124;-48
2023/07/22 01:36:40;;;;;;;15.95;12.10;;;;;;;13.06;100.00;101140.03;5034970;28;20280;-48
2023/07/22 01:39:05;;;;;;;15.00;11.55;;;;;;;12.72;100.00;101085.84;5035457;28;20037;-48
2023/07/22 01:41:31;;;;;;;14.30;10.65;;;;;;;13.46;100.00;101216.94;5035226;28;20400;-48
2023/07/22 01:43:56;;;;;;;14.70;11.23;;;;;;;13.45;100.00;101207.31;5035276;28;20381;-47
2023/07/22 01:46:22;;;;;;;15.70;11.75;;;;;;;13.05;100.00;101140.97;5035056;28;20033;-46
2023/07/22 01:48:47;;;;;;;17.67;11.73;;;;;;;13.34;100.00;101190.97;5035268;28;20041;-51
2023/07/22 01:51:12;;;;;;;14.80;10.88;;;;;;;13.33;100.00;101186.63;5034501;28;20125;-49
2023/07/22 01:53:38;;;;;;;15.98;11.23;;;;;;;13.41;100.00;101201.25;5035009;28;20033;-50
2023/07/22 01:56:04;;;;;;;15.15;10.40;;;;;;;13.31;100.00;101188.47;5034693;28;20042;-47
2023/07/22 01:58:30;;;;;;;14.55;11.30;;;;;;;13.35;100.00;101195.34;5034883;28;20048;-47
2023/07/22 02:00:55;;;;;;;14.68;10.93;;;;;;;13.28;100.00;101191.22;5034492;28;20033;-46
2023/07/22 02:03:20;;;;;;;13.82;10.35;;;;;;;12.93;100.00;101134.34;5034081;28;20412;-45
2023/07/22 02:05:46;;;;;;;14.32;11.00;;;;;;;13.34;100.00;101207.69;5035050;28;20034;-49
2023/07/22 02:08:11;;;;;;;13.27;10.73;;;;;;;13.15;100.00;101160.88;5035587;28;20184;-46
2023/07/22 02:10:36;;;;;;;14.30;9.75;;;;;;;13.25;100.00;101184.25;5034707;28;20465;-47
2023/07/22 02:13:04;;;;;;;16.25;10.80;;;;;;;12.99;100.00;101127.06;5034739;28;20037;-52
2023/07/22 02:15:29;;;;;;;14.15;10.25;;;;;;;13.38;100.00;101190.81;5034714;28;20022;-48
2023/07/22 02:17:55;;;;;;;15.07;10.15;;;;;;;13.41;100.00;101193.34;5034363;28;20033;-49
2023/07/22 02:20:20;;;;;;;13.45;10.35;;;;;;;13.44;100.00;101192.34;5033717;28;20451;-46
2023/07/22 02:22:46;;;;;;;13.73;9.90;;;;;;;13.37;100.00;101180.28;5034675;28;20037;-48
2023/07/22 02:25:11;;;;;;;11.38;8.77;;;;;;;13.38;100.00;101188.16;5034479;28;20044;-48
2023/07/22 02:27:36;;;;;;;10.88;9.13;;;;;;;12.95;100.00;101120.19;5034372;28;20038;-48
2023/07/22 02:30:04;;;;;;;12.25;9.18;;;;;;;12.91;100.00;101129.13;5016060;28;20060;-48
2023/07/22 02:32:29;;;;;;;12.48;9.38;;;;;;;13.23;100.00;101185.22;5033896;28;20464;-48
2023/07/22 02:34:55;;;;;;;13.55;9.70;;;;;;;12.84;100.00;101117.06;5032259;28;20069;-47
2023/07/22 02:37:20;;;;;;;13.63;9.65;;;;;;;12.84;100.00;101114.41;5032782;28;20108;-49
2023/07/22 02:39:46;;;;;;;12.75;9.23;;;;;;;13.21;100.00;101187.06;5033656;28;20113;-49
2023/07/22 02:42:11;;;;;;;11.88;9.68;;;;;;;13.17;100.00;101170.47;5015604;28;20374;-47
2023/07/22 02:44:36;;;;;;;10.98;8.73;;;;;;;13.16;100.00;101168.75;5033404;28;20053;-46
2023/07/22 02:47:02;;;;;;;10.98;8.85;;;;;;;12.80;100.00;101110.19;5033331;28;20030;-46
2023/07/22 02:49:27;;;;;;;9.68;8.68;;;;;;;12.93;100.00;101137.84;5033918;28;20185;-46
2023/07/22 02:51:52;;;;;;;14.38;9.60;;;;;;;13.20;100.00;101178.28;5033413;28;20114;-46
2023/07/22 02:54:17;;;;;;;11.05;7.90;;;;;;;12.76;100.00;101086.56;5033580;28;20496;-47
2023/07/22 02:56:43;;;;;;;11.80;8.35;;;;;;;13.22;100.00;101181.72;5033675;28;20037;-50
2023/07/22 02:59:09;;;;;;;12.75;8.57;;;;;;;13.00;100.00;101122.63;5033618;28;20127;-50
2023/07/22 03:01:34;;;;;;;12.75;9.20;;;;;;;13.21;100.00;101152.72;5032488;28;20386;-47
2023/07/22 03:04:00;;;;;;;10.50;7.90;;;;;;;13.35;100.00;101174.19;5033659;28;20281;-46
2023/07/22 03:06:26;;;;;;;11.98;8.57;;;;;;;13.26;100.00;101159.53;5033374;28;20301;-48
2023/07/22 03:08:51;;;;;;;13.27;9.00;;;;;;;13.43;100.00;101180.03;5033735;28;20041;-49
2023/07/22 03:11:16;;;;;;;10.75;7.97;;;;;;;13.03;100.00;101104.03;5033402;28;20087;-47
2023/07/22 03:13:42;;;;;;;11.05;8.05;;;;;;;13.43;100.00;101166.81;5033350;28;20069;-47
2023/07/22 03:16:08;;;;;;;10.60;7.20;;;;;;;13.36;100.00;101157.41;5033325;28;20033;-50
2023/07/22 03:18:33;;;;;;;9.98;7.13;;;;;;;13.02;100.00;101104.09;5033409;28;20048;-49
2023/07/22 03:20:59;;;;;;;9.32;7.43;;;;;;;13.43;100.00;101183.56;5033098;28;20033;-49
2023/07/22 03:23:24;;;;;;;9.13;7.40;;;;;;;13.33;100.00;101163.69;5033564;28;20040;-47
2023/07/22 03:25:49;;;;;;;9.32;7.25;;;;;;;13.39;100.00;101183.75;5033160;28;20052;-47
2023/07/22 03:28:16;;;;;;;9.75;7.80;;;;;;;13.35;100.00;101182.13;5032012;28;20053;-47
2023/07/22 03:30:42;;;;;;;10.57;7.47;;;;;;;13.31;100.00;101180.53;5033120;28;20038;-47
2023/07/22 03:33:08;;;;;;;8.77;7.80;;;;;;;13.26;100.00;101187.75;5015334;28;20601;-51
2023/07/22 03:35:33;;;;;;;9.88;7.20;;;;;;;12.93;100.00;101127.28;5032864;28;20033;-50
2023/07/22 03:37:58;;;;;;;10.68;7.68;;;;;;;13.27;100.00;101187.72;5015456;28;20041;-47
2023/07/22 03:40:29;;;;;;;11.05;8.02;;;;;;;13.14;100.00;101170.56;5033025;28;20440;-49
2023/07/22 03:42:55;;;;;;;9.50;7.40;;;;;;;13.30;100.00;101207.88;5033362;28;20377;-48
2023/07/22 03:45:21;;;;;;;8.70;7.50;;;;;;;13.32;100.00;101196.31;5031305;28;20272;-47
2023/07/22 03:47:49;;;;;;;10.23;7.47;;;;;;;12.90;100.00;101131.84;5032464;28;20040;-49
2023/07/22 03:50:15;;;;;;;9.60;7.55;;;;;;;13.35;100.00;101192.69;5032450;28;20491;-48
2023/07/22 03:52:40;;;;;;;8.55;6.97;;;;;;;13.36;100.00;101197.94;5032896;28;20034;-53
2023/07/22 03:55:06;;;;;;;8.48;6.80;;;;;;;13.35;100.00;101196.22;5032837;28;20099;-49
2023/07/22 03:57:31;;;;;;;8.32;6.15;;;;;;;13.30;100.00;101177.03;5031504;28;20476;-51
2023/07/22 03:59:57;;;;;;;8.93;6.15;;;;;;;13.45;100.00;101196.72;5031367;28;20065;-47
2023/07/22 04:02:23;;;;;;;8.88;5.28;;;;;;;13.20;100.00;101135.97;5032566;28;20072;-46
2023/07/22 04:04:50;;;;;;;7.00;6.30;;;;;;;13.56;100.00;101185.72;5032529;28;20037;-50
2023/07/22 04:07:16;;;;;;;6.45;5.28;;;;;;;13.11;100.00;101119.59;5032626;28;20314;-50
2023/07/22 04:09:41;;;;;;;10.07;4.85;;;;;;;13.24;100.00;101116.47;5031075;28;20079;-48
2023/07/22 04:12:07;;;;;;;6.82;5.10;;;;;;;13.37;100.00;101130.03;5032237;28;20459;-49
2023/07/22 04:14:33;;;;;;;6.40;5.28;;;;;;;13.71;100.00;101179.84;5031948;28;20124;-49
2023/07/22 04:16:58;;;;;;;7.07;5.63;;;;;;;13.59;100.00;101145.94;5030999;28;20072;-46
2023/07/22 04:19:23;;;;;;;6.60;5.05;;;;;;;13.59;100.00;101141.50;5032264;28;20040;-49
2023/07/22 04:21:49;;;;;;;6.97;5.03;;;;;;;13.46;100.00;101113.81;5031927;28;20433;-53
2023/07/22 04:24:14;;;;;;;7.18;5.10;;;;;;;13.88;100.00;101172.06;5032457;28;20075;-48
2023/07/22 04:26:42;;;;;;;6.88;5.55;;;;;;;13.93;100.00;101180.69;5032457;28;20096;-49
2023/07/22 04:29:07;;;;;;;9.18;6.00;;;;;;;13.52;100.00;101087.13;5032360;28;20050;-49
2023/07/22 04:31:33;;;;;;;9.43;5.82;;;;;;;14.03;100.00;101174.09;5032261;28;20036;-49
2023/07/22 04:33:58;;;;;;;7.15;5.63;;;;;;;13.75;100.00;101113.50;5030936;28;20044;-48
2023/07/22 04:36:24;;;;;;;7.25;6.30;;;;;;;14.03;100.00;101148.50;5031741;28;20436;-48
2023/07/22 04:38:49;;;;;;;7.95;6.47;;;;;;;14.25;100.00;101179.34;5032000;28;20029;-50
2023/07/22 04:41:14;;;;;;;10.70;7.00;;;;;;;14.29;100.00;101170.38;5032028;28;20072;-52
2023/07/22 04:43:40;;;;;;;11.38;7.25;;;;;;;14.35;100.00;101194.84;5031930;28;20393;-48
2023/07/22 04:46:05;;;;;;;11.95;8.23;;;;;;;14.39;100.00;101163.78;5030629;28;20076;-47
2023/07/22 04:48:31;;;;;;;9.40;7.85;;;;;;;14.49;100.00;101170.41;5031874;28;20042;-46
2023/07/22 04:50:56;;;;;;;11.18;8.52;;;;;;;14.38;100.00;101127.63;5031968;28;20121;-46
2023/07/22 04:53:22;;;;;;;12.52;9.13;;;;;;;14.68;100.00;101170.47;5030470;28;20120;-46
2023/07/22 04:55:48;;;;;;;12.85;8.85;;;;;;;14.30;100.00;101090.00;5030462;28;20103;-48
2023/07/22 04:58:13;;;;;;;14.00;9.65;;;;;;;14.76;100.00;101150.66;5031786;28;20053;-47
2023/07/22 05:00:38;;;;;;;22.23;12.48;;;;;;;14.53;100.00;101098.69;5033015;28;20069;-47
2023/07/22 05:03:04;;;;;;;17.17;10.48;;;;;;;14.91;100.00;101154.41;5035974;28;20034;-48
2023/07/22 05:05:29;;;;;;;16.33;11.27;;;;;;;14.63;100.00;101107.06;5036094;28;20037;-48
2023/07/22 05:07:55;;;;;;;19.80;12.00;;;;;;;14.68;100.00;101104.22;5035928;28;20394;-50
2023/07/22 05:10:20;;;;;;;17.85;12.38;;;;;;;15.11;100.00;101162.31;5035405;28;20073;-48
2023/07/22 05:12:45;;;;;;;22.23;13.35;;;;;;;15.05;100.00;101152.84;5036066;28;20392;-48
2023/07/22 05:15:12;;;;;;;20.67;13.88;;;;;;;15.23;100.00;101174.16;5035629;28;20045;-49
2023/07/22 05:17:38;;;;;;;21.98;13.75;;;;;;;14.78;100.00;101095.78;5035599;28;20028;-47
2023/07/22 05:20:09;;;;;;;21.58;13.82;;;;;;;14.93;100.00;101095.09;5035489;28;20033;-51
2023/07/22 05:22:35;;;;;;;27.50;15.60;;;;;;;15.38;100.00;101166.31;5035856;28;20173;-50
2023/07/22 05:25:01;;;;;;;25.90;16.17;;;;;;;15.44;100.00;101162.53;5034490;28;20449;-47
2023/07/22 05:27:26;;;;;;;25.35;16.63;;;;;;;15.45;100.00;101162.44;5035660;28;20476;-48
2023/07/22 05:29:51;;;;;;;26.40;16.35;;;;;;;15.43;100.00;101137.81;5035115;28;20417;-48
2023/07/22 05:32:16;;;;;;;27.15;18.98;;;;;;;15.61;100.00;101154.66;5035489;28;20034;-50
2023/07/22 05:34:42;;;;;;;31.40;20.67;;;;;;;15.61;100.00;101142.25;5035575;28;20038;-49
2023/07/22 05:37:07;;;;;;;29.83;19.67;;;;;;;15.31;100.00;101068.56;5035307;28;20030;-47
2023/07/22 05:39:32;;;;;;;29.75;18.92;;;;;;;15.82;100.00;101143.00;5034501;28;20042;-46
2023/07/22 05:41:58;;;;;;;31.90;18.75;;;;;;;16.02;100.00;101145.53;5035497;28;20040;-49
2023/07/22 05:44:23;;;;;;;33.20;21.02;;;;;;;16.10;100.00;101139.84;5035026;28;20033;-49
2023/07/22 05:46:48;;;;;;;33.78;20.52;;;;;;;16.14;100.00;101128.13;5035138;28;20041;-49
2023/07/22 05:49:14;;;;;;;35.67;21.23;;;;;;;16.25;100.00;101139.94;5033069;28;20044;-49
2023/07/22 05:51:39;;;;;;;30.70;19.20;;;;;;;16.37;100.00;101143.75;5035083;28;20042;-49
2023/07/22 05:54:04;;;;;;;33.70;20.17;;;;;;;16.44;100.00;101154.91;5034791;28;20044;-48
2023/07/22 05:56:31;;;;;;;33.50;19.92;;;;;;;16.18;100.00;101088.03;5017265;28;20042;-50
2023/07/22 05:58:56;;;;;;;33.08;19.13;;;;;;;16.22;100.00;101089.63;5017121;28;20029;-51
2023/07/22 06:01:23;;;;;;;28.27;19.17;;;;;;;16.65;100.00;101162.66;5033293;28;20044;-51
2023/07/22 06:03:48;;;;;;;29.20;19.23;;;;;;;16.32;100.00;101079.34;5034650;28;20425;-52
2023/07/22 06:06:14;;;;;;;28.58;19.45;;;;;;;16.74;100.00;101142.72;5034853;28;20120;-48
2023/07/22 06:08:39;;;;;;;28.13;19.60;;;;;;;16.79;100.00;101154.81;5034752;28;20044;-46
2023/07/22 06:11:04;;;;;;;29.85;19.25;;;;;;;16.12;100.00;101027.28;5034189;28;20440;-50
2023/07/22 06:13:30;;;;;;;27.98;19.60;;;;;;;16.83;100.00;101137.78;5034289;28;20030;-46
2023/07/22 06:15:55;;;;;;;30.60;18.75;;;;;;;16.93;100.00;101155.91;5034166;28;20033;-48
2023/07/22 06:18:20;;;;;;;28.48;17.95;;;;;;;16.67;100.00;101101.44;5034231;28;20029;-47
2023/07/22 06:20:46;;;;;;;25.27;17.40;;;;;;;16.99;100.00;101142.28;5034157;28;20037;-48
2023/07/22 06:23:11;;;;;;;28.40;17.95;;;;;;;17.03;100.00;101144.69;5016107;28;20030;-46
2023/07/22 06:25:36;;;;;;;29.50;18.20;;;;;;;16.69;100.00;101073.88;5034060;28;20033;-49
2023/07/22 06:28:02;;;;;;;26.10;17.90;;;;;;;17.20;100.00;101149.94;5033720;28;20053;-52
2023/07/22 06:30:27;;;;;;;24.90;18.42;;;;;;;17.25;100.00;101145.22;5033974;28;20041;-48
2023/07/22 06:32:53;;;;;;;28.42;17.77;;;;;;;17.31;100.00;101144.88;5034275;28;20040;-49
2023/07/22 06:35:18;;;;;;;24.70;16.75;;;;;;;17.02;100.00;101083.56;5034300;28;20057;-46
2023/07/22 06:37:43;;;;;;;26.67;17.40;;;;;;;17.41;100.00;101146.09;5034341;28;20033;-52
2023/07/22 06:40:10;;;;;;;23.35;17.15;;;;;;;17.47;100.00;101152.00;5016113;28;20397;-51
2023/07/22 06:42:35;;;;;;;23.48;15.57;;;;;;;17.53;100.00;101141.03;5033848;28;20087;-51
2023/07/22 06:45:01;;;;;;;22.27;15.90;;;;;;;17.30;100.00;101089.97;5032636;28;20128;-49
2023/07/22 06:47:26;;;;;;;29.02;16.55;;;;;;;17.70;100.00;101135.63;5034070;28;20040;-50
2023/07/22 06:49:51;;;;;;;21.38;15.75;;;;;;;17.73;100.00;101144.31;5034084;28;20079;-50
2023/07/22 06:52:17;;;;;;;21.17;14.32;;;;;;;17.77;100.00;101135.22;5034101;28;20033;-51
2023/07/22 06:54:42;;;;;;;21.92;15.00;;;;;;;17.86;100.00;101144.47;5033017;28;20038;-49
2023/07/22 06:57:08;;;;;;;26.23;15.05;;;;;;;17.59;100.00;101082.16;5033591;28;20447;-51
2023/07/22 06:59:33;;;;;;;23.38;15.35;;;;;;;18.05;100.00;101145.13;5033767;28;20037;-47
2023/07/22 07:01:59;;;;;;;22.85;15.00;;;;;;;18.10;100.00;101148.34;5033933;28;20075;-48
2023/07/22 07:04:24;;;;;;;20.35;14.07;;;;;;;18.17;100.00;101149.72;5033893;28;20453;-50
2023/07/22 07:06:50;;;;;;;17.92;13.50;;;;;;;17.87;100.00;101082.25;5033819;28;20080;-49
2023/07/22 07:09:15;;;;;;;22.60;14.02;;;;;;;18.22;100.00;101144.13;5033415;28;20026;-49
2023/07/22 07:11:41;;;;;;;20.55;14.25;;;;;;;18.14;100.00;101165.88;5033370;28;20377;-47
2023/07/22 07:14:06;;;;;;;20.52;13.20;;;;;;;17.60;100.00;101060.75;5033379;28;20040;-48
2023/07/22 07:16:32;;;;;;;23.10;14.98;;;;;;;17.84;100.00;101088.63;5032376;28;20438;-50
2023/07/22 07:18:58;;;;;;;22.15;13.10;;;;;;;17.84;100.00;101075.31;5032196;28;20460;-51
2023/07/22 07:21:24;;;;;;;17.83;12.27;;;;;;;18.23;100.00;101143.19;5033414;28;20037;-51
2023/07/22 07:23:50;;;;;;;19.15;13.10;;;;;;;18.20;100.00;101162.00;5032276;28;20500;-50
2023/07/22 07:26:16;;;;;;;18.83;12.23;;;;;;;18.26;100.00;101157.19;5033258;28;20044;-53
2023/07/22 07:28:42;;;;;;;19.02;12.52;;;;;;;18.30;100.00;101160.53;5033250;28;20057;-50
2023/07/22 07:31:07;;;;;;;16.85;12.98;;;;;;;18.18;100.00;101132.81;5032960;28;20044;-47
2023/07/22 07:33:33;;;;;;;18.08;12.82;;;;;;;18.32;100.00;101142.63;5032758;28;20116;-47
2023/07/22 07:35:59;;;;;;;18.20;12.90;;;;;;;18.37;100.00;101129.88;5033468;28;20095;-47
2023/07/22 07:38:25;;;;;;;14.55;10.18;;;;;;;18.10;100.00;101081.75;5033022;28;20501;-47
2023/07/22 07:40:56;;;;;;;17.10;11.20;;;;;;;18.56;100.00;101143.88;5031857;28;20427;-49
2023/07/22 07:43:21;;;;;;;13.20;10.38;;;;;;;18.33;100.00;101099.88;5015108;28;20051;-48
2023/07/22 07:45:46;;;;;;;16.55;9.80;;;;;;;18.68;100.00;101139.59;5033237;28;20481;-49
2023/07/22 07:48:12;;;;;;;14.13;9.75;;;;;;;18.87;100.00;101150.84;5033344;28;20044;-47
2023/07/22 07:50:37;;;;;;;16.02;9.25;;;;;;;18.99;100.00;101147.41;5031332;28;20120;-49
2023/07/22 07:53:03;;;;;;;17.30;9.38;;;;;;;18.84;100.00;101089.69;5033124;28;20121;-49
2023/07/22 07:55:28;;;;;;;16.10;9.52;;;;;;;19.45;100.00;101150.72;5032669;28;20124;-48
2023/07/22 07:57:53;;;;;;;14.07;8.68;;;;;;;19.47;100.00;101159.47;5031463;28;20046;-51
2023/07/22 08:00:20;;;;;;;13.38;8.40;;;;;;;19.45;100.00;101143.59;5032845;28;20045;-50
2023/07/22 08:02:45;;;;;;;12.50;8.75;;;;;;;19.57;100.00;101141.94;5032790;28;20082;-48
2023/07/22 08:05:12;;;;;;;10.70;8.52;;;;;;;19.65;100.00;101161.84;5032941;28;20030;-50
2023/07/22 08:07:37;;;;;;;14.20;8.48;;;;;;;19.45;100.00;101150.72;5032841;28;20098;-48
2023/07/22 08:10:04;;;;;;;13.77;9.35;;;;;;;19.31;100.00;101159.59;5032726;28;20046;-50
2023/07/22 08:12:30;;;;;;;13.40;8.23;;;;;;;19.16;100.00;101157.88;5030509;28;20397;-49
2023/07/22 08:14:56;;;;;;;11.23;8.70;;;;;;;18.53;100.00;101091.56;5032778;28;20033;-50
2023/07/22 08:17:21;;;;;;;12.63;9.02;;;;;;;18.85;100.00;101164.28;5032829;28;20037;-49
2023/07/22 08:19:46;;;;;;;19.75;9.18;;;;;;;18.80;100.00;101149.50;5032763;28;20528;-48
2023/07/22 08:22:12;;;;;;;14.70;8.75;;;;;;;18.46;100.00;101095.53;5032228;28;20043;-49
2023/07/22 08:24:37;;;;;;;11.85;7.65;;;;;;;18.59;100.00;101105.50;5032237;28;20477;-48
2023/07/22 08:27:03;;;;;;;11.00;8.00;;;;;;;19.00;100.00;101171.31;5032078;28;20037;-51
2023/07/22 08:29:28;;;;;;;13.07;7.82;;;;;;;18.66;100.00;101101.47;5032211;28;20103;-50
2023/07/22 08:31:53;;;;;;;11.98;7.40;;;;;;;18.73;100.00;101101.03;5032528;28;20403;-49
2023/07/22 08:34:19;;;;;;;15.10;7.45;;;;;;;18.81;100.00;101111.22;5032382;28;20037;-51
2023/07/22 08:36:44;;;;;;;8.38;5.90;;;;;;;18.96;100.00;101169.81;5032253;28;20075;-50
2023/07/22 08:39:10;;;;;;;9.15;6.07;;;;;;;18.40;100.00;101092.38;5032168;28;20037;-53
2023/07/22 08:41:36;;;;;;;12.18;7.50;;;;;;;18.76;100.00;101171.97;5032202;28;20119;-49
2023/07/22 08:44:02;;;;;;;7.95;5.35;;;;;;;18.51;100.00;101132.59;5032261;28;20036;-49
2023/07/22 08:46:30;;;;;;;11.30;5.40;;;;;;;18.55;100.00;101144.81;5030909;28;20041;-48
2023/07/22 08:48:56;;;;;;;6.65;4.13;;;;;;;18.65;100.00;101153.13;5032048;28;20025;-49
2023/07/22 08:51:23;;;;;;;8.85;4.70;;;;;;;18.48;100.00;101107.00;5030788;28;20034;-51
2023/07/22 08:53:49;;;;;;;9.98;4.43;;;;;;;18.98;100.00;101156.34;5030830;28;20503;-51
2023/07/22 08:56:14;;;;;;;5.40;3.45;;;;;;;19.21;100.00;101158.44;5031925;28;20038;-52
2023/07/22 08:58:41;;;;;;;7.60;3.60;;;;;;;19.52;100.00;101165.41;5030579;28;20112;-50
2023/07/22 09:01:07;;;;;;;4.55;3.38;;;;;;;19.67;100.00;101155.56;5032257;28;20038;-50
2023/07/22 09:03:33;;;;;;;5.43;3.40;;;;;;;19.82;100.00;101181.28;5031928;28;20040;-50
2023/07/22 09:05:58;;;;;;;5.22;2.45;;;;;;;19.81;100.00;101177.72;5032210;28;20455;-50
2023/07/22 09:08:24;;;;;;;8.32;3.40;;;;;;;19.93;100.00;101176.94;5030500;28;20029;-49
2023/07/22 09:10:49;;;;;;;4.68;2.58;;;;;;;20.10;100.00;101184.69;5031836;28;20045;-52
2023/07/22 09:13:15;;;;;;;5.15;2.78;;;;;;;20.13;100.00;101115.00;5031885;28;20088;-48
2023/07/22 09:15:40;;;;;;;5.80;2.67;;;;;;;20.25;100.00;101088.41;5030786;28;20037;-48
2023/07/22 09:18:06;;;;;;;6.20;2.70;;;;;;;20.94;100.00;101168.25;5030676;28;20033;-48
2023/07/22 09:20:32;;;;;;;4.72;2.70;;;;;;;20.93;100.00;101126.44;5031730;28;20041;-51
2023/07/22 09:22:59;;;;;;;7.78;2.35;;;;;;;21.17;100.00;101132.72;5031754;28;20029;-48
2023/07/22 09:25:26;;;;;;;7.50;2.22;;;;;;;21.31;100.00;101144.16;5031315;28;20033;-47
2023/07/22 09:27:54;;;;;;;4.47;2.10;;;;;;;21.54;100.00;101200.56;5031520;28;20048;-47
2023/07/22 09:30:28;;;;;;;7.47;2.22;;;;;;;21.10;100.00;101195.72;5031079;28;20053;-48
2023/07/22 09:32:58;;;;;;;4.75;2.35;;;;;;;20.58;100.00;101177.88;5031334;28;20111;-49
2023/07/22 09:35:28;;;;;;;5.22;2.47;;;;;;;19.87;100.00;101109.69;5031487;28;20065;-51
2023/07/22 09:37:54;;;;;;;4.07;2.45;;;;;;;19.85;100.00;101186.41;5031464;28;20072;-53
2023/07/22 09:40:20;;;;;;;4.65;2.40;;;;;;;19.46;100.00;101193.38;5031242;28;20472;-51
2023/07/22 09:42:51;;;;;;;4.25;2.83;;;;;;;18.86;100.00;101122.44;5030643;28;20053;-52
2023/07/22 09:45:18;;;;;;;9.40;3.28;;;;;;;18.67;100.00;101180.53;5031732;28;20079;-47
2023/07/22 09:47:44;;;;;;;5.53;3.55;;;;;;;18.18;100.00;101193.22;5034342;28;20372;-49
2023/07/22 09:50:23;;;;;;;7.32;3.45;;;;;;;17.42;100.00;101187.72;5017352;28;20493;-51
2023/07/22 09:52:50;;;;;;;7.57;3.47;;;;;;;17.17;100.00;101200.66;5033861;28;20476;-48
2023/07/22 09:55:17;;;;;;;9.02;4.60;;;;;;;16.69;100.00;101190.81;5033961;28;20029;-51
2023/07/22 09:57:45;;;;;;;7.00;4.00;;;;;;;16.22;100.00;101155.16;5034855;28;20029;-50
2023/07/22 10:00:14;;;;;;;4.88;3.42;;;;;;;16.13;100.00;101163.59;5035168;28;20075;-49
2023/07/22 10:02:40;;;;;;;8.30;3.92;;;;;;;16.16;100.00;101185.53;5033661;28;20026;-47
2023/07/22 10:05:09;;;;;;;6.40;3.90;;;;;;;16.04;100.00;101185.28;5016870;28;20193;-49
2023/07/22 10:07:35;;;;;;;9.40;3.88;;;;;;;15.81;100.00;101148.38;5033807;28;20108;-49
2023/07/22 10:10:01;;;;;;;13.40;4.40;;;;;;;15.94;100.00;101162.75;5033625;28;20033;-47
2023/07/22 10:12:27;;;;;;;7.03;4.28;;;;;;;16.01;100.00;101157.09;5034636;28;20111;-49
2023/07/22 10:14:53;;;;;;;6.90;4.40;;;;;;;16.22;100.00;101165.78;5034311;28;20390;-49
2023/07/22 10:17:19;;;;;;;5.40;4.65;;;;;;;16.51;100.00;101166.94;5033034;28;20469;-48
2023/07/22 10:19:44;;;;;;;7.93;5.25;;;;;;;16.73;100.00;101152.47;5034151;28;20056;-47
2023/07/22 10:22:11;;;;;;;6.50;4.70;;;;;;;16.52;100.00;101105.72;5034028;28;20477;-48
2023/07/22 10:24:36;;;;;;;7.70;4.97;;;;;;;16.93;100.00;101161.22;5033357;28;20130;-51
2023/07/22 10:27:02;;;;;;;8.05;4.43;;;;;;;16.96;100.00;101161.88;5033035;28;20549;-52
2023/07/22 10:29:28;;;;;;;9.73;4.30;;;;;;;16.91;100.00;101179.91;5034543;28;20058;-50
2023/07/22 10:31:54;;;;;;;7.97;4.50;;;;;;;16.95;100.00;101181.47;5033251;28;20038;-51
2023/07/22 10:34:23;;;;;;;6.07;3.83;;;;;;;17.15;100.00;101172.41;5034144;28;20369;-49
2023/07/22 10:36:49;;;;;;;6.28;3.45;;;;;;;17.59;100.00;101177.97;5033220;28;20047;-48
2023/07/22 10:39:26;;;;;;;7.28;3.72;;;;;;;18.42;100.00;101119.78;5033017;28;20037;-48
2023/07/22 10:42:04;;;;;;;5.18;2.80;;;;;;;19.49;100.00;101099.72;5014494;28;20044;-49
2023/07/22 10:44:32;;;;;;;5.43;3.10;;;;;;;20.61;100.00;101113.47;5030412;28;20097;-50
2023/07/22 10:46:58;;;;;;;3.80;2.30;;;;;;;21.54;100.00;101182.66;5030251;28;20076;-48
2023/07/22 10:49:28;;;;;;;5.13;1.98;;;;;;;21.50;100.00;101186.53;5030488;28;20105;-49
2023/07/22 10:51:53;;;;;;;6.65;2.05;;;;;;;20.95;100.00;101153.94;5030450;28;20480;-48
2023/07/22 10:54:36;;;;;;;5.07;2.00;;;;;;;20.85;100.00;101148.34;5031762;28;20128;-47
2023/07/22 10:57:25;;;;;;;2.92;1.73;;;;;;;21.41;100.00;101215.78;5031664;28;20063;-48
2023/07/22 10:59:51;;;;;;;4.20;2.10;;;;;;;21.28;100.00;101210.44;5022132;28;20049;-49
2023/07/22 11:02:24;;;;;;;2.53;2.03;;;;;;;21.08;100.00;101141.41;5031681;28;20033;-48
2023/07/22 11:04:49;;;;;;;3.45;1.92;;;;;;;21.74;100.00;101199.97;5014089;28;20030;-47